Time;durP1;ratioP1;P1;durP2;ratioP2;P2;SDS_P1;SDS_P2;PMS_P1;PMS_P2;Temp;Humidity;BMP_temperature;BMP_pressure;BME280_temperature;BME280_humidity;BME280_pressure;Samples;Min_cycle;Max_cycle;Signal;HPM_P1;HPM_P2
2023/06/26 00:01:24;;;;;;;;;;;;;;;20.89;nan;97978.09;5080995;28;19939;-63
2023/06/26 00:03:52;;;;;;;;;;;;;;;20.83;nan;97974.09;5078210;28;19925;-63
2023/06/26 00:06:20;;;;;;;;;;;;;;;20.92;nan;97977.31;5080427;28;20296;-63
2023/06/26 00:08:47;;;;;;;;;;;;;;;20.89;nan;97975.34;5090986;28;19924;-62
2023/06/26 00:11:15;;;;;;;;;;;;;;;20.81;nan;97981.16;5077891;28;19946;-63
2023/06/26 00:13:43;;;;;;;;;;;;;;;20.81;nan;97964.56;5077599;28;19954;-63
2023/06/26 00:16:12;;;;;;;;;;;;;;;20.78;nan;97965.34;5089775;28;19931;-63
2023/06/26 00:18:40;;;;;;;;;;;;;;;20.79;nan;97966.94;5089202;28;19955;-63
2023/06/26 00:21:08;;;;;;;;;;;;;;;20.58;nan;97970.22;5079677;28;20023;-63
2023/06/26 00:23:36;;;;;;;;;;;;;;;20.69;nan;97965.63;5086246;28;20373;-63
2023/06/26 00:26:06;;;;;;;;;;;;;;;20.78;nan;97968.09;5068221;28;19924;-63
2023/06/26 00:28:34;;;;;;;;;;;;;;;20.77;nan;97961.75;5085112;28;19925;-63
2023/06/26 00:31:03;;;;;;;;;;;;;;;20.67;nan;97962.47;5071202;28;19924;-63
2023/06/26 00:33:32;;;;;;;;;;;;;;;20.70;nan;97964.44;5069692;28;20269;-62
2023/06/26 00:36:00;;;;;;;;;;;;;;;20.63;nan;97964.38;5061748;28;19979;-64
2023/06/26 00:38:28;;;;;;;;;;;;;;;20.58;nan;97968.25;5083402;28;20050;-63
2023/06/26 00:40:58;;;;;;;;;;;;;;;20.63;nan;97970.69;5075382;28;19924;-66
2023/06/26 00:43:29;;;;;;;;;;;;;;;20.65;nan;97968.34;5055288;28;19932;-62
2023/06/26 00:45:57;;;;;;;;;;;;;;;20.61;nan;97966.69;5061547;28;20007;-62
2023/06/26 00:48:25;;;;;;;;;;;;;;;20.58;nan;97967.47;5068958;28;19927;-63
2023/06/26 00:50:55;;;;;;;;;;;;;;;20.59;nan;97974.56;5082905;28;20515;-63
2023/06/26 00:53:23;;;;;;;;;;;;;;;20.55;nan;97970.97;5065149;28;19932;-63
2023/06/26 00:55:51;;;;;;;;;;;;;;;20.44;nan;97961.75;5075138;28;19986;-63
2023/06/26 00:58:18;;;;;;;;;;;;;;;20.41;nan;97968.81;5068618;28;19928;-63
2023/06/26 01:00:46;;;;;;;;;;;;;;;20.26;nan;97967.03;5067279;28;19924;-63
2023/06/26 01:03:16;;;;;;;;;;;;;;;20.22;nan;97966.97;5070552;28;20293;-63
2023/06/26 01:05:45;;;;;;;;;;;;;;;20.25;nan;97959.94;5071480;28;19939;-63
2023/06/26 01:08:14;;;;;;;;;;;;;;;20.32;nan;97960.81;5088132;28;19986;-65
2023/06/26 01:10:42;;;;;;;;;;;;;;;20.27;nan;97957.59;5099062;28;19928;-64
2023/06/26 01:13:10;;;;;;;;;;;;;;;20.38;nan;97961.28;5089189;28;19924;-63
2023/06/26 01:15:38;;;;;;;;;;;;;;;20.30;nan;97956.84;5065848;28;19971;-63
2023/06/26 01:18:06;;;;;;;;;;;;;;;20.28;nan;97965.47;5107698;28;19981;-63
2023/06/26 01:20:35;;;;;;;;;;;;;;;20.28;nan;97959.97;5064304;28;19932;-63
2023/06/26 01:23:05;;;;;;;;;;;;;;;20.29;nan;97958.78;5068357;28;19924;-63
2023/06/26 01:25:38;;;;;;;;;;;;;;;20.24;nan;97956.38;5076456;28;19971;-63
2023/06/26 01:28:08;;;;;;;;;;;;;;;20.19;nan;97959.47;5069290;28;19932;-63
2023/06/26 01:30:36;;;;;;;;;;;;;;;20.18;nan;97963.38;5068075;28;19975;-64
2023/06/26 01:33:04;;;;;;;;;;;;;;;20.06;nan;97963.59;5089981;28;19932;-64
2023/06/26 01:35:32;;;;;;;;;;;;;;;20.08;nan;97961.25;5085351;28;20503;-63
2023/06/26 01:38:12;;;;;;;;;;;;;;;20.17;nan;97959.03;5087752;28;21475;-64
2023/06/26 01:40:40;;;;;;;;;;;;;;;19.99;nan;97963.50;5066926;28;19925;-63
2023/06/26 01:43:10;;;;;;;;;;;;;;;19.99;nan;97952.47;5055667;28;19970;-64
2023/06/26 01:45:40;;;;;;;;;;;;;;;20.07;nan;97948.63;5089462;28;19935;-63
2023/06/26 01:48:09;;;;;;;;;;;;;;;20.04;nan;97952.16;5081715;28;19924;-63
2023/06/26 01:50:36;;;;;;;;;;;;;;;20.12;nan;97953.84;5067569;28;19964;-63
2023/06/26 01:53:07;;;;;;;;;;;;;;;19.98;nan;97948.13;5068472;28;19932;-63
2023/06/26 01:55:36;;;;;;;;;;;;;;;20.03;nan;97948.59;5068835;28;19978;-63
2023/06/26 01:58:04;;;;;;;;;;;;;;;19.99;nan;97953.28;5073615;28;19924;-63
2023/06/26 02:00:33;;;;;;;;;;;;;;;20.02;nan;97946.19;5078581;28;19935;-63
2023/06/26 02:03:01;;;;;;;;;;;;;;;19.97;nan;97944.56;5089387;28;19924;-63
2023/06/26 02:05:31;;;;;;;;;;;;;;;19.94;nan;97939.00;5068019;28;19963;-64
2023/06/26 02:08:01;;;;;;;;;;;;;;;19.88;nan;97941.28;5070962;28;19924;-65
2023/06/26 02:10:30;;;;;;;;;;;;;;;19.80;nan;97940.38;5073533;28;19935;-63
2023/06/26 02:12:58;;;;;;;;;;;;;;;19.73;nan;97942.25;5069485;28;19952;-65
2023/06/26 02:15:26;;;;;;;;;;;;;;;19.72;nan;97938.69;5067831;28;19930;-63
2023/06/26 02:17:56;;;;;;;;;;;;;;;19.86;nan;97933.38;5090176;28;19935;-63
2023/06/26 02:20:24;;;;;;;;;;;;;;;19.76;nan;97945.06;5085471;28;19982;-63
2023/06/26 02:22:53;;;;;;;;;;;;;;;19.75;nan;97937.94;5086196;28;19928;-63
2023/06/26 02:25:21;;;;;;;;;;;;;;;19.61;nan;97944.03;5094286;28;19971;-63
2023/06/26 02:27:48;;;;;;;;;;;;;;;19.51;nan;97939.13;5068729;28;20439;-63
2023/06/26 02:30:16;;;;;;;;;;;;;;;19.66;nan;97940.19;5074074;28;19971;-63
2023/06/26 02:32:44;;;;;;;;;;;;;;;19.67;nan;97949.25;5072955;28;19971;-63
2023/06/26 02:35:13;;;;;;;;;;;;;;;19.56;nan;97952.59;5082792;28;19924;-64
2023/06/26 02:37:44;;;;;;;;;;;;;;;19.52;nan;97950.94;5102314;28;19949;-65
2023/06/26 02:40:13;;;;;;;;;;;;;;;19.45;nan;97951.63;5072014;28;20380;-63
2023/06/26 02:42:44;;;;;;;;;;;;;;;19.44;nan;97949.22;5066802;28;19924;-62
2023/06/26 02:45:12;;;;;;;;;;;;;;;19.35;nan;97953.03;5070188;28;19927;-63
2023/06/26 02:47:40;;;;;;;;;;;;;;;19.37;nan;97949.91;5065199;28;19931;-63
2023/06/26 02:50:10;;;;;;;;;;;;;;;19.34;nan;97951.47;5083019;28;19924;-63
2023/06/26 02:52:58;;;;;;;;;;;;;;;19.28;nan;97943.84;5083712;28;19924;-64
2023/06/26 02:55:27;;;;;;;;;;;;;;;19.17;nan;97951.94;5069292;28;19931;-63
2023/06/26 02:57:55;;;;;;;;;;;;;;;19.18;nan;97950.00;5064635;28;19928;-63
2023/06/26 03:00:23;;;;;;;;;;;;;;;18.97;nan;97953.16;5072635;28;19928;-63
2023/06/26 03:02:53;;;;;;;;;;;;;;;18.95;nan;97944.44;5072502;28;19931;-63
2023/06/26 03:05:24;;;;;;;;;;;;;;;18.84;nan;97950.56;5049410;28;20423;-63
2023/06/26 03:07:53;;;;;;;;;;;;;;;18.74;nan;97936.59;5050253;28;20015;-63
2023/06/26 03:10:22;;;;;;;;;;;;;;;18.84;nan;97949.75;5048602;28;19970;-63
2023/06/26 03:12:50;;;;;;;;;;;;;;;18.78;nan;97946.50;5041828;28;20416;-63
2023/06/26 03:15:19;;;;;;;;;;;;;;;18.80;nan;97937.88;5037334;28;20027;-63
2023/06/26 03:17:47;;;;;;;;;;;;;;;18.95;nan;97947.19;5054204;28;20018;-63
2023/06/26 03:20:22;;;;;;;;;;;;;;;18.90;nan;97936.50;5053062;28;19924;-63
2023/06/26 03:22:54;;;;;;;;;;;;;;;18.75;nan;97949.19;5066929;28;20019;-65
2023/06/26 03:25:25;;;;;;;;;;;;;;;18.77;nan;97942.16;5049726;28;19964;-63
2023/06/26 03:28:04;;;;;;;;;;;;;;;18.71;nan;97946.38;5050202;28;20880;-63
2023/06/26 03:30:33;;;;;;;;;;;;;;;18.76;nan;97937.03;5060516;28;20270;-62
2023/06/26 03:33:01;;;;;;;;;;;;;;;18.83;nan;97937.16;5051298;28;19931;-63
2023/06/26 03:35:29;;;;;;;;;;;;;;;18.86;nan;97947.47;5049714;28;19994;-62
2023/06/26 03:37:57;;;;;;;;;;;;;;;18.82;nan;97941.09;5045812;28;19940;-63
2023/06/26 03:40:27;;;;;;;;;;;;;;;18.99;nan;97940.59;5044894;28;19924;-63
2023/06/26 03:42:54;;;;;;;;;;;;;;;19.02;nan;97939.09;5043056;28;19935;-62
2023/06/26 03:45:25;;;;;;;;;;;;;;;18.96;nan;97948.78;5049007;28;20377;-63
2023/06/26 03:47:55;;;;;;;;;;;;;;;18.92;nan;97939.69;5044159;28;19951;-63
2023/06/26 03:50:23;;;;;;;;;;;;;;;18.75;nan;97941.75;5066311;28;19928;-63
2023/06/26 03:52:51;;;;;;;;;;;;;;;18.92;nan;97936.94;5044031;28;19925;-63
2023/06/26 03:55:19;;;;;;;;;;;;;;;18.86;nan;97938.41;5039784;28;19925;-63
2023/06/26 03:57:48;;;;;;;;;;;;;;;18.78;nan;97930.00;5048380;28;19925;-64
2023/06/26 04:00:16;;;;;;;;;;;;;;;18.72;nan;97938.91;5065376;28;19924;-64
2023/06/26 04:02:44;;;;;;;;;;;;;;;18.74;nan;97945.63;5061884;28;19931;-63
2023/06/26 04:05:13;;;;;;;;;;;;;;;18.68;nan;97936.09;5051502;28;20289;-64
2023/06/26 04:07:41;;;;;;;;;;;;;;;18.67;nan;97948.22;5051893;28;19960;-63
2023/06/26 04:10:09;;;;;;;;;;;;;;;18.67;nan;97945.47;5047771;28;20373;-64
2023/06/26 04:12:39;;;;;;;;;;;;;;;18.72;nan;97942.47;5048197;28;19948;-64
2023/06/26 04:15:09;;;;;;;;;;;;;;;18.82;nan;97941.09;5063318;28;19982;-64
2023/06/26 04:17:37;;;;;;;;;;;;;;;18.87;nan;97942.75;5064748;28;19978;-63
2023/06/26 04:20:06;;;;;;;;;;;;;;;18.74;nan;97940.13;5056882;28;19928;-64
2023/06/26 04:22:34;;;;;;;;;;;;;;;18.92;nan;97939.69;5063671;28;19928;-64
2023/06/26 04:25:03;;;;;;;;;;;;;;;18.92;nan;97939.69;5060067;28;20011;-65
2023/06/26 04:27:31;;;;;;;;;;;;;;;19.03;nan;97929.66;5068454;28;19924;-64
2023/06/26 04:30:02;;;;;;;;;;;;;;;19.02;nan;97939.09;5043731;28;19932;-63
2023/06/26 04:32:31;;;;;;;;;;;;;;;19.05;nan;97936.38;5059929;28;19928;-63
2023/06/26 04:34:59;;;;;;;;;;;;;;;18.93;nan;97946.78;5068584;28;19933;-63
2023/06/26 04:37:27;;;;;;;;;;;;;;;19.00;nan;97946.91;5064327;28;19969;-63
2023/06/26 04:39:55;;;;;;;;;;;;;;;19.08;nan;97938.41;5049502;28;20335;-63
2023/06/26 04:42:23;;;;;;;;;;;;;;;19.20;nan;97939.41;5067244;28;20016;-63
2023/06/26 04:44:50;;;;;;;;;;;;;;;19.29;nan;97938.00;5043678;28;19962;-63
2023/06/26 04:47:18;;;;;;;;;;;;;;;19.27;nan;97934.78;5064125;28;20023;-64
2023/06/26 04:49:47;;;;;;;;;;;;;;;19.30;nan;97934.06;5064840;28;19936;-63
2023/06/26 04:52:15;;;;;;;;;;;;;;;19.30;nan;97936.81;5064775;28;19925;-64
2023/06/26 04:54:43;;;;;;;;;;;;;;;19.30;nan;97939.56;5063283;28;20384;-63
2023/06/26 04:57:11;;;;;;;;;;;;;;;19.30;nan;97930.53;5068615;28;19925;-63
2023/06/26 04:59:39;;;;;;;;;;;;;;;19.41;nan;97928.72;5062793;28;20002;-63
2023/06/26 05:02:07;;;;;;;;;;;;;;;19.46;nan;97925.66;5075508;28;19924;-63
2023/06/26 05:04:35;;;;;;;;;;;;;;;19.51;nan;97933.63;5058525;28;19970;-64
2023/06/26 05:07:06;;;;;;;;;;;;;;;19.48;nan;97933.56;5081570;28;20349;-64
2023/06/26 05:09:34;;;;;;;;;;;;;;;19.52;nan;97935.22;5086392;28;19928;-64
2023/06/26 05:12:02;;;;;;;;;;;;;;;19.59;nan;97940.06;5051864;28;19928;-64
2023/06/26 05:14:30;;;;;;;;;;;;;;;19.55;nan;97933.69;5099748;28;19967;-64
2023/06/26 05:16:58;;;;;;;;;;;;;;;19.57;nan;97936.84;5068605;28;20051;-64
2023/06/26 05:19:26;;;;;;;;;;;;;;;19.73;nan;97934.78;5099911;28;19989;-64
2023/06/26 05:21:54;;;;;;;;;;;;;;;19.68;nan;97932.34;5086446;28;19928;-64
2023/06/26 05:24:23;;;;;;;;;;;;;;;19.67;nan;97927.19;5086981;28;19931;-64
2023/06/26 05:26:51;;;;;;;;;;;;;;;19.63;nan;97929.88;5090259;28;20026;-63
2023/06/26 05:29:19;;;;;;;;;;;;;;;19.77;nan;97923.81;5078653;28;20424;-63
2023/06/26 05:31:49;;;;;;;;;;;;;;;19.84;nan;97926.66;5079145;28;20388;-63
2023/06/26 05:34:16;;;;;;;;;;;;;;;20.13;nan;97934.19;5085077;28;19924;-64
2023/06/26 05:36:44;;;;;;;;;;;;;;;20.03;nan;97926.53;5059995;28;19928;-64
2023/06/26 05:39:13;;;;;;;;;;;;;;;20.13;nan;97922.31;5082089;28;19956;-64
2023/06/26 05:41:43;;;;;;;;;;;;;;;20.16;nan;97924.34;5086187;28;19934;-64
2023/06/26 05:44:11;;;;;;;;;;;;;;;20.24;nan;97925.22;5087754;28;20019;-64
2023/06/26 05:46:39;;;;;;;;;;;;;;;20.27;nan;97921.72;5083739;28;19924;-64
2023/06/26 05:49:07;;;;;;;;;;;;;;;20.41;nan;97914.41;5091117;28;20023;-63
2023/06/26 05:51:35;;;;;;;;;;;;;;;20.51;nan;97912.19;5085858;28;19959;-64
2023/06/26 05:54:03;;;;;;;;;;;;;;;20.53;nan;97909.84;5079733;28;20023;-64
2023/06/26 05:56:31;;;;;;;;;;;;;;;20.58;nan;97910.31;5083912;28;19981;-63
2023/06/26 05:59:01;;;;;;;;;;;;;;;20.68;nan;97908.84;5084521;28;20259;-64
2023/06/26 06:01:29;;;;;;;;;;;;;;;20.73;nan;97902.97;5079601;28;19994;-64
2023/06/26 06:03:57;;;;;;;;;;;;;;;20.78;nan;97901.84;5055264;28;20090;-64
2023/06/26 06:06:25;;;;;;;;;;;;;;;20.84;nan;97908.59;5082308;28;20656;-64
2023/06/26 06:08:53;;;;;;;;;;;;;;;20.92;nan;97904.72;5083274;28;19938;-64
2023/06/26 06:11:21;;;;;;;;;;;;;;;21.00;nan;97905.59;5075452;28;20029;-64
2023/06/26 06:13:49;;;;;;;;;;;;;;;21.00;nan;97905.59;5083531;28;20285;-65
2023/06/26 06:16:18;;;;;;;;;;;;;;;21.12;nan;97902.56;5065874;28;19930;-64
2023/06/26 06:18:46;;;;;;;;;;;;;;;21.21;nan;97899.47;5079705;28;19932;-64
2023/06/26 06:21:14;;;;;;;;;;;;;;;21.31;nan;97904.34;5081355;28;20511;-64
2023/06/26 06:23:42;;;;;;;;;;;;;;;21.38;nan;97893.34;5090057;28;20023;-63
2023/06/26 06:26:12;;;;;;;;;;;;;;;21.43;nan;97901.28;5071165;28;19924;-64
2023/06/26 06:28:39;;;;;;;;;;;;;;;21.50;nan;97906.06;5082822;28;19932;-64
2023/06/26 06:31:08;;;;;;;;;;;;;;;21.57;nan;97906.09;5080241;28;19929;-64
2023/06/26 06:33:37;;;;;;;;;;;;;;;21.64;nan;97906.94;5080646;28;19929;-64
2023/06/26 06:36:06;;;;;;;;;;;;;;;21.73;nan;97903.81;5062117;28;19993;-64
2023/06/26 06:38:34;;;;;;;;;;;;;;;21.80;nan;97909.44;5068246;28;20292;-65
2023/06/26 06:41:02;;;;;;;;;;;;;;;21.85;nan;97899.97;5083365;28;19935;-63
2023/06/26 06:43:29;;;;;;;;;;;;;;;21.90;nan;97891.31;5094446;28;19971;-64
2023/06/26 06:45:57;;;;;;;;;;;;;;;22.01;nan;97892.16;5068079;28;21179;-64
2023/06/26 06:48:25;;;;;;;;;;;;;;;22.12;nan;97901.34;5069366;28;20798;-64
2023/06/26 06:50:55;;;;;;;;;;;;;;;22.18;nan;97899.00;5061688;28;19924;-64
2023/06/26 06:53:22;;;;;;;;;;;;;;;22.30;nan;97895.06;5084121;28;20364;-64
2023/06/26 06:55:51;;;;;;;;;;;;;;;22.34;nan;97896.69;5075406;28;20019;-64
2023/06/26 06:58:18;;;;;;;;;;;;;;;22.42;nan;97889.97;5089806;28;20664;-64
2023/06/26 07:00:47;;;;;;;;;;;;;;;22.46;nan;97893.56;5055265;28;20021;-64
2023/06/26 07:03:15;;;;;;;;;;;;;;;22.55;nan;97887.66;5081839;28;20430;-65
2023/06/26 07:05:43;;;;;;;;;;;;;;;22.66;nan;97898.78;5074865;28;19924;-64
2023/06/26 07:08:13;;;;;;;;;;;;;;;22.74;nan;97892.88;5068380;28;19928;-64
2023/06/26 07:10:40;;;;;;;;;;;;;;;22.85;nan;97892.88;5082960;28;19939;-65
2023/06/26 07:13:08;;;;;;;;;;;;;;;22.99;nan;97894.91;5082677;28;19924;-64
2023/06/26 07:15:36;;;;;;;;;;;;;;;22.95;nan;97900.44;5082855;28;19924;-65
2023/06/26 07:18:04;;;;;;;;;;;;;;;22.98;nan;97896.88;5078512;28;19936;-64
2023/06/26 07:20:32;;;;;;;;;;;;;;;23.08;nan;97889.78;5082128;28;19936;-64
2023/06/26 07:22:59;;;;;;;;;;;;;;;23.08;nan;97887.00;5066887;28;20015;-64
2023/06/26 07:25:29;;;;;;;;;;;;;;;23.17;nan;97878.28;5067776;28;19931;-63
2023/06/26 07:27:57;;;;;;;;;;;;;;;23.25;nan;97883.44;5087222;28;20027;-64
2023/06/26 07:30:25;;;;;;;;;;;;;;;23.31;nan;97883.03;5082173;28;20374;-64
2023/06/26 07:32:52;;;;;;;;;;;;;;;23.38;nan;97871.94;5082444;28;19970;-70
2023/06/26 07:35:20;;;;;;;;;;;;;;;23.45;nan;97878.28;5072640;28;20475;-70
2023/06/26 07:37:48;;;;;;;;;;;;;;;23.50;nan;97875.13;5077159;28;19924;-63
2023/06/26 07:40:17;;;;;;;;;;;;;;;23.52;nan;97875.50;5064774;28;19932;-66
2023/06/26 07:42:47;;;;;;;;;;;;;;;23.67;nan;97872.75;5055723;28;20381;-64
2023/06/26 07:45:16;;;;;;;;;;;;;;;23.67;nan;97868.00;5079210;28;19924;-64
2023/06/26 07:47:44;;;;;;;;;;;;;;;23.63;nan;97874.72;5087954;28;20383;-65
2023/06/26 07:50:15;;;;;;;;;;;;;;;23.67;nan;97867.19;5064768;28;19928;-65
2023/06/26 07:52:43;;;;;;;;;;;;;;;23.65;nan;97875.94;5078994;28;20357;-65
2023/06/26 07:55:11;;;;;;;;;;;;;;;23.72;nan;97873.13;5095574;28;19928;-66
2023/06/26 07:57:39;;;;;;;;;;;;;;;24.01;nan;97865.50;5067279;28;20416;-65
2023/06/26 08:00:10;;;;;;;;;;;;;;;23.99;nan;97862.34;5077453;28;20031;-65
2023/06/26 08:02:41;;;;;;;;;;;;;;;24.02;nan;97867.13;5062019;28;20372;-65
2023/06/26 08:05:09;;;;;;;;;;;;;;;24.11;nan;97863.09;5055317;28;19925;-65
2023/06/26 08:07:37;;;;;;;;;;;;;;;24.11;nan;97858.34;5057543;28;19932;-65
2023/06/26 08:10:05;;;;;;;;;;;;;;;24.13;nan;97866.25;5045607;28;19979;-65
2023/06/26 08:12:34;;;;;;;;;;;;;;;24.26;nan;97859.88;5059587;28;19924;-65
2023/06/26 08:15:02;;;;;;;;;;;;;;;24.23;nan;97859.88;5061883;28;19928;-65
2023/06/26 08:17:32;;;;;;;;;;;;;;;24.32;nan;97851.91;5057737;28;19953;-66
2023/06/26 08:20:00;;;;;;;;;;;;;;;24.38;nan;97855.88;5055526;28;19968;-65
2023/06/26 08:22:28;;;;;;;;;;;;;;;24.53;nan;97851.81;5057728;28;20366;-65
2023/06/26 08:24:55;;;;;;;;;;;;;;;24.85;nan;97850.84;5043468;28;19929;-65
2023/06/26 08:27:23;;;;;;;;;;;;;;;24.93;nan;97851.56;5058285;28;19925;-65
2023/06/26 08:29:51;;;;;;;;;;;;;;;24.60;nan;97839.88;5041795;28;19936;-65
2023/06/26 08:32:19;;;;;;;;;;;;;;;24.72;nan;97838.63;5065090;28;19924;-66
2023/06/26 08:34:48;;;;;;;;;;;;;;;24.54;nan;97842.28;5035940;28;19925;-66
2023/06/26 08:37:16;;;;;;;;;;;;;;;24.48;nan;97837.59;5044682;28;20391;-65
2023/06/26 08:39:44;;;;;;;;;;;;;;;24.45;nan;97835.59;5048303;28;19940;-65
2023/06/26 08:42:11;;;;;;;;;;;;;;;24.60;nan;97839.88;5060165;28;19925;-65
2023/06/26 08:44:39;;;;;;;;;;;;;;;24.73;nan;97829.88;5058830;28;19928;-64
2023/06/26 08:47:20;;;;;;;;;;;;;;;24.79;nan;97841.34;5040307;28;20277;-65
2023/06/26 08:49:53;;;;;;;;;;;;;;;24.60;nan;97844.66;5049625;28;19925;-64
2023/06/26 08:52:24;;;;;;;;;;;;;;;24.72;nan;97841.41;5054550;28;20387;-65
2023/06/26 08:54:56;;;;;;;;;;;;;;;25.41;nan;97836.91;5047202;28;20281;-65
2023/06/26 08:57:26;;;;;;;;;;;;;;;25.69;nan;97839.41;5062323;28;19924;-65
2023/06/26 08:59:54;;;;;;;;;;;;;;;25.27;nan;97835.84;5058918;28;19935;-64
2023/06/26 09:02:22;;;;;;;;;;;;;;;25.19;nan;97841.88;5054754;28;19968;-65
2023/06/26 09:04:50;;;;;;;;;;;;;;;25.19;nan;97841.88;5061632;28;19924;-66
2023/06/26 09:07:20;;;;;;;;;;;;;;;25.02;nan;97835.22;5061543;28;20418;-65
2023/06/26 09:09:48;;;;;;;;;;;;;;;25.13;nan;97835.97;5059339;28;19963;-67
2023/06/26 09:12:15;;;;;;;;;;;;;;;25.14;nan;97829.22;5059086;28;19929;-66
2023/06/26 09:14:43;;;;;;;;;;;;;;;24.98;nan;97826.94;5042756;28;20492;-66
2023/06/26 09:17:11;;;;;;;;;;;;;;;25.17;nan;97833.94;5072000;28;19987;-67
2023/06/26 09:19:39;;;;;;;;;;;;;;;25.41;nan;97825.78;5070866;28;19928;-66
2023/06/26 09:22:12;;;;;;;;;;;;;;;25.52;nan;97820.94;5071538;28;19931;-67
2023/06/26 09:24:44;;;;;;;;;;;;;;;25.22;nan;97818.81;5068620;28;19960;-66
2023/06/26 09:27:13;;;;;;;;;;;;;;;25.06;nan;97822.91;5075942;28;19994;-67
2023/06/26 09:29:40;;;;;;;;;;;;;;;25.12;nan;97830.81;5052413;28;19929;-67
2023/06/26 09:32:09;;;;;;;;;;;;;;;25.15;nan;97827.22;5069787;28;19924;-66
2023/06/26 09:34:37;;;;;;;;;;;;;;;25.25;nan;97820.78;5064016;28;19939;-67
2023/06/26 09:37:05;;;;;;;;;;;;;;;26.00;nan;97820.81;5051446;28;19931;-66
2023/06/26 09:39:33;;;;;;;;;;;;;;;25.60;nan;97825.97;5049010;28;20376;-67
2023/06/26 09:42:02;;;;;;;;;;;;;;;26.06;nan;97826.72;5048645;28;19942;-68
2023/06/26 09:44:34;;;;;;;;;;;;;;;25.54;nan;97824.84;5051954;28;19925;-67
2023/06/26 09:47:02;;;;;;;;;;;;;;;25.27;nan;97821.16;5070893;28;19955;-66
2023/06/26 09:49:30;;;;;;;;;;;;;;;25.19;nan;97819.63;5069661;28;19966;-66
2023/06/26 09:51:58;;;;;;;;;;;;;;;25.12;nan;97830.81;5041013;28;19925;-69
2023/06/26 09:54:28;;;;;;;;;;;;;;;25.30;nan;97811.97;5047862;28;19936;-66
2023/06/26 09:56:56;;;;;;;;;;;;;;;25.33;nan;97811.94;5065246;28;19924;-66
2023/06/26 09:59:26;;;;;;;;;;;;;;;25.48;nan;97812.59;5062139;28;20023;-67
2023/06/26 10:01:59;;;;;;;;;;;;;;;25.54;nan;97824.06;5044800;28;20034;-67
2023/06/26 10:04:27;;;;;;;;;;;;;;;25.76;nan;97813.53;5055811;28;20302;-66
2023/06/26 10:06:55;;;;;;;;;;;;;;;25.76;nan;97813.53;5063176;28;20015;-66
2023/06/26 10:09:23;;;;;;;;;;;;;;;25.91;nan;97809.38;5073757;28;19978;-66
2023/06/26 10:11:55;;;;;;;;;;;;;;;25.45;nan;97807.84;5039233;28;19929;-66
2023/06/26 10:14:24;;;;;;;;;;;;;;;25.73;nan;97803.22;5041159;28;19925;-66
2023/06/26 10:16:53;;;;;;;;;;;;;;;25.86;nan;97804.28;5060905;28;19924;-66
2023/06/26 10:19:24;;;;;;;;;;;;;;;26.08;nan;97811.16;5072427;28;20324;-66
2023/06/26 10:21:52;;;;;;;;;;;;;;;25.96;nan;97806.16;5068994;28;19955;-66
2023/06/26 10:24:20;;;;;;;;;;;;;;;25.74;nan;97804.78;5071712;28;19970;-66
2023/06/26 10:26:48;;;;;;;;;;;;;;;25.84;nan;97799.13;5070708;28;20357;-68
2023/06/26 10:29:17;;;;;;;;;;;;;;;25.76;nan;97794.06;5068297;28;20293;-67
2023/06/26 10:31:45;;;;;;;;;;;;;;;26.07;nan;97795.66;5055686;28;19988;-66
2023/06/26 10:34:15;;;;;;;;;;;;;;;26.03;nan;97800.47;5069164;28;19924;-66
2023/06/26 10:36:43;;;;;;;;;;;;;;;26.55;nan;97791.06;5069470;28;19925;-65
2023/06/26 10:39:11;;;;;;;;;;;;;;;26.64;nan;97797.69;5066420;28;19995;-65
2023/06/26 10:41:39;;;;;;;;;;;;;;;26.49;nan;97793.53;5043897;28;19978;-65
2023/06/26 10:44:15;;;;;;;;;;;;;;;26.48;nan;97803.09;5065198;28;19970;-64
2023/06/26 10:46:49;;;;;;;;;;;;;;;26.70;nan;97803.56;5047496;28;19929;-65
2023/06/26 10:49:18;;;;;;;;;;;;;;;26.87;nan;97802.50;5048355;28;20015;-65
2023/06/26 10:51:47;;;;;;;;;;;;;;;26.90;nan;97803.69;5065448;28;19966;-65
2023/06/26 10:54:16;;;;;;;;;;;;;;;26.39;nan;97798.03;5057020;28;19979;-66
2023/06/26 10:56:44;;;;;;;;;;;;;;;26.31;nan;97792.94;5049251;28;19947;-66
2023/06/26 10:59:17;;;;;;;;;;;;;;;26.41;nan;97797.59;5049564;28;20581;-65
2023/06/26 11:01:45;;;;;;;;;;;;;;;26.11;nan;97801.97;5047829;28;20354;-65
2023/06/26 11:04:16;;;;;;;;;;;;;;;26.17;nan;97793.16;5063560;28;19924;-65
2023/06/26 11:06:48;;;;;;;;;;;;;;;26.34;nan;97787.34;5065947;28;19932;-64
2023/06/26 11:09:18;;;;;;;;;;;;;;;26.47;nan;97793.16;5060407;28;19956;-64
2023/06/26 11:11:58;;;;;;;;;;;;;;;26.79;nan;97794.66;5067655;28;19929;-64
2023/06/26 11:14:27;;;;;;;;;;;;;;;26.37;nan;97794.88;5050823;28;20277;-66
2023/06/26 11:16:56;;;;;;;;;;;;;;;26.57;nan;97795.00;5057582;28;19932;-64
2023/06/26 11:19:24;;;;;;;;;;;;;;;26.04;nan;97793.69;5062080;28;20437;-67
2023/06/26 11:21:54;;;;;;;;;;;;;;;25.96;nan;97794.22;5060672;28;19970;-64
2023/06/26 11:24:22;;;;;;;;;;;;;;;26.75;nan;97788.38;5061565;28;20343;-65
2023/06/26 11:26:50;;;;;;;;;;;;;;;26.70;nan;97791.66;5050028;28;19940;-64
2023/06/26 11:29:18;;;;;;;;;;;;;;;27.00;nan;97791.53;5066677;28;19955;-65
2023/06/26 11:31:46;;;;;;;;;;;;;;;27.19;nan;97790.06;5043659;28;19929;-65
2023/06/26 11:34:15;;;;;;;;;;;;;;;27.39;nan;97784.53;5066959;28;19932;-65
2023/06/26 11:36:46;;;;;;;;;;;;;;;27.40;nan;97784.09;5047149;28;19935;-65
2023/06/26 11:39:17;;;;;;;;;;;;;;;27.32;nan;97791.00;5049770;28;19940;-65
2023/06/26 11:41:46;;;;;;;;;;;;;;;27.52;nan;97787.47;5073312;28;19929;-67
2023/06/26 11:44:19;;;;;;;;;;;;;;;27.38;nan;97786.53;5058110;28;19940;-66
2023/06/26 11:46:48;;;;;;;;;;;;;;;27.15;nan;97792.91;5065889;28;19924;-67
2023/06/26 11:49:18;;;;;;;;;;;;;;;27.29;nan;97785.50;5065894;28;20405;-65
2023/06/26 11:51:47;;;;;;;;;;;;;;;27.59;nan;97787.34;5060866;28;20405;-64
2023/06/26 11:54:23;;;;;;;;;;;;;;;27.47;nan;97782.38;5059009;28;19924;-66
2023/06/26 11:56:57;;;;;;;;;;;;;;;27.57;nan;97764.66;5068284;28;19925;-64
2023/06/26 11:59:25;;;;;;;;;;;;;;;27.67;nan;97770.03;5065218;28;19924;-66
2023/06/26 12:01:54;;;;;;;;;;;;;;;27.61;nan;97777.34;5066248;28;19932;-66
2023/06/26 12:04:23;;;;;;;;;;;;;;;27.57;nan;97776.59;5068120;28;19928;-65
2023/06/26 12:06:57;;;;;;;;;;;;;;;27.23;nan;97764.91;5057306;28;19928;-65
2023/06/26 12:09:27;;;;;;;;;;;;;;;27.37;nan;97765.41;5070386;28;19929;-65
2023/06/26 12:11:56;;;;;;;;;;;;;;;28.05;nan;97774.50;5058832;28;19928;-65
2023/06/26 12:14:25;;;;;;;;;;;;;;;27.59;nan;97768.63;5047641;28;19925;-67
2023/06/26 12:16:58;;;;;;;;;;;;;;;27.59;nan;97768.63;5050014;28;20241;-65
2023/06/26 12:19:29;;;;;;;;;;;;;;;27.72;nan;97771.56;5064025;28;20011;-64
2023/06/26 12:21:59;;;;;;;;;;;;;;;28.29;nan;97762.00;5046539;28;19924;-65
2023/06/26 12:24:29;;;;;;;;;;;;;;;28.04;nan;97759.75;5062827;28;19928;-65
2023/06/26 12:27:01;;;;;;;;;;;;;;;28.10;nan;97760.03;5049570;28;19924;-65
2023/06/26 12:29:33;;;;;;;;;;;;;;;27.93;nan;97759.19;5063143;28;19924;-66
2023/06/26 12:32:02;;;;;;;;;;;;;;;28.38;nan;97750.25;5070778;28;20037;-63
2023/06/26 12:34:32;;;;;;;;;;;;;;;28.50;nan;97757.97;5054402;28;20061;-62
2023/06/26 12:37:01;;;;;;;;;;;;;;;28.61;nan;97757.72;5038990;28;19963;-63
2023/06/26 12:39:47;;;;;;;;;;;;;;;28.37;nan;97752.25;5056698;28;19982;-62
2023/06/26 12:42:16;;;;;;;;;;;;;;;28.53;nan;97759.09;5040498;28;19937;-63
2023/06/26 12:44:44;;;;;;;;;;;;;;;28.67;nan;97750.38;5064142;28;19958;-62
2023/06/26 12:47:14;;;;;;;;;;;;;;;28.81;nan;97755.59;5071434;28;20377;-63
2023/06/26 12:49:43;;;;;;;;;;;;;;;28.71;nan;97749.06;5071445;28;19931;-62
2023/06/26 12:52:12;;;;;;;;;;;;;;;28.75;nan;97750.97;5071685;28;19925;-65
2023/06/26 12:54:41;;;;;;;;;;;;;;;28.52;nan;97737.97;5070534;28;19928;-62
2023/06/26 12:57:10;;;;;;;;;;;;;;;28.55;nan;97729.50;5070315;28;19929;-64
2023/06/26 12:59:39;;;;;;;;;;;;;;;28.61;nan;97738.94;5072633;28;20296;-64
2023/06/26 13:02:08;;;;;;;;;;;;;;;28.88;nan;97740.69;5061835;28;20313;-63
2023/06/26 13:04:36;;;;;;;;;;;;;;;28.92;nan;97741.34;5064793;28;19925;-62
2023/06/26 13:07:05;;;;;;;;;;;;;;;29.16;nan;97737.16;5069961;28;20006;-62
2023/06/26 13:09:33;;;;;;;;;;;;;;;29.02;nan;97729.13;5070555;28;19931;-62
2023/06/26 13:12:02;;;;;;;;;;;;;;;29.46;nan;97733.19;5040574;28;19925;-62
2023/06/26 13:14:32;;;;;;;;;;;;;;;29.53;nan;97729.41;5065457;28;20019;-64
2023/06/26 13:17:01;;;;;;;;;;;;;;;29.57;nan;97721.72;5056008;28;19931;-63